createdAt,value
2023-03-19T00:02:17.693Z,99.90
2023-03-19T00:04:46.740Z,99.90
2023-03-19T00:07:15.860Z,99.90
2023-03-19T00:09:44.132Z,99.90
2023-03-19T00:12:12.169Z,99.90
2023-03-19T00:14:39.739Z,99.90
2023-03-19T00:17:07.367Z,99.90
2023-03-19T00:19:34.770Z,99.90
2023-03-19T00:22:02.084Z,99.90
2023-03-19T00:24:29.360Z,99.90
2023-03-19T00:26:56.891Z,99.90
2023-03-19T00:29:24.993Z,99.90
2023-03-19T00:31:52.562Z,99.90
2023-03-19T00:34:20.056Z,99.90
2023-03-19T00:36:49.320Z,99.90
2023-03-19T00:39:16.787Z,99.90
2023-03-19T00:41:50.485Z,99.90
2023-03-19T00:44:19.283Z,99.90
2023-03-19T00:46:46.949Z,99.90
2023-03-19T00:49:14.204Z,99.90
2023-03-19T00:51:43.939Z,99.90
2023-03-19T00:54:12.442Z,99.90
2023-03-19T00:56:39.696Z,99.90
2023-03-19T00:59:06.946Z,99.90
2023-03-19T01:01:34.760Z,99.90
2023-03-19T01:04:02.042Z,99.90
2023-03-19T01:06:29.146Z,99.90
2023-03-19T01:08:56.769Z,99.90
2023-03-19T01:11:25.867Z,99.90
2023-03-19T01:13:53.663Z,99.90
2023-03-19T01:16:20.915Z,99.90
2023-03-19T01:18:48.121Z,99.90
2023-03-19T01:21:15.179Z,99.90
2023-03-19T01:23:46.964Z,99.90
2023-03-19T01:26:14.633Z,99.90
2023-03-19T01:28:43.460Z,99.90
2023-03-19T01:31:11.771Z,99.90
2023-03-19T01:33:58.728Z,99.90
2023-03-19T01:36:34.507Z,99.90
2023-03-19T01:39:04.257Z,99.90
2023-03-19T01:41:32.068Z,99.90
2023-03-19T01:44:28.395Z,99.90
2023-03-19T01:47:23.600Z,99.90
2023-03-19T01:50:35.082Z,99.90
2023-03-19T01:53:27.728Z,99.90
2023-03-19T01:56:15.941Z,99.90
2023-03-19T01:59:11.385Z,99.90
2023-03-19T02:02:01.469Z,99.90
2023-03-19T02:04:31.765Z,99.90
2023-03-19T02:07:01.368Z,99.90
2023-03-19T02:09:30.453Z,99.90
2023-03-19T02:11:58.797Z,99.90
2023-03-19T02:14:26.210Z,99.90
2023-03-19T02:16:54.890Z,99.90
2023-03-19T02:19:34.618Z,99.90
2023-03-19T02:22:03.749Z,99.90
2023-03-19T02:24:39.064Z,99.90
2023-03-19T02:27:10.863Z,99.90
2023-03-19T02:29:42.423Z,99.90
2023-03-19T02:32:09.663Z,99.90
2023-03-19T02:34:39.547Z,99.90
2023-03-19T02:37:14.459Z,99.90
2023-03-19T02:39:48.031Z,99.90
2023-03-19T02:42:17.374Z,99.90
2023-03-19T02:44:44.538Z,99.90
2023-03-19T02:47:11.891Z,99.90
2023-03-19T02:49:39.188Z,99.90
2023-03-19T02:52:06.443Z,99.90
2023-03-19T02:54:33.563Z,99.90
2023-03-19T02:57:01.177Z,99.90
2023-03-19T02:59:28.509Z,99.90
2023-03-19T03:01:55.841Z,99.90
2023-03-19T03:04:23.062Z,99.90
2023-03-19T03:06:50.132Z,99.90
2023-03-19T03:09:17.297Z,99.90
2023-03-19T03:11:44.886Z,99.90
2023-03-19T03:14:12.635Z,99.90
2023-03-19T03:16:41.280Z,99.90
2023-03-19T03:19:08.462Z,99.90
2023-03-19T03:21:36.314Z,99.90
2023-03-19T03:24:03.892Z,99.90
2023-03-19T03:26:31.169Z,99.90
2023-03-19T03:28:58.300Z,99.90
2023-03-19T03:31:25.395Z,99.90
2023-03-19T03:33:52.680Z,99.90
2023-03-19T03:36:19.796Z,99.90
2023-03-19T03:38:46.953Z,99.90
2023-03-19T03:41:16.113Z,99.90
2023-03-19T03:43:43.387Z,99.90
2023-03-19T03:46:10.771Z,99.90
2023-03-19T03:48:38.503Z,99.90
2023-03-19T03:51:05.764Z,99.90
2023-03-19T03:53:33.383Z,99.90
2023-03-19T03:56:02.534Z,99.90
2023-03-19T03:58:30.881Z,99.90
2023-03-19T04:00:57.956Z,99.90
2023-03-19T04:03:25.647Z,99.90
2023-03-19T04:05:53.228Z,99.90
2023-03-19T04:08:21.920Z,99.90
2023-03-19T04:10:49.285Z,99.90
2023-03-19T04:13:17.449Z,99.90
2023-03-19T04:15:45.126Z,99.90
2023-03-19T04:18:13.951Z,99.90
2023-03-19T04:20:42.136Z,99.90
2023-03-19T04:23:09.337Z,99.90
2023-03-19T04:25:40.492Z,99.90
2023-03-19T04:28:09.096Z,99.90
2023-03-19T04:30:36.697Z,99.90
2023-03-19T04:33:04.963Z,99.90
2023-03-19T04:35:32.108Z,99.90
2023-03-19T04:37:59.382Z,99.90
2023-03-19T04:40:26.605Z,99.90
2023-03-19T04:42:54.969Z,99.90
2023-03-19T04:45:31.673Z,99.90
2023-03-19T04:47:59.732Z,99.90
2023-03-19T04:50:27.982Z,99.90
2023-03-19T04:52:55.686Z,99.90
2023-03-19T04:55:24.349Z,99.90
2023-03-19T04:58:01.411Z,99.90
2023-03-19T05:00:31.884Z,99.90
2023-03-19T05:02:59.775Z,99.90
2023-03-19T05:05:29.195Z,99.90
2023-03-19T05:07:57.531Z,99.90
2023-03-19T05:10:25.834Z,99.90
2023-03-19T05:12:53.437Z,99.90
2023-03-19T05:15:20.959Z,99.90
2023-03-19T05:17:59.322Z,99.90
2023-03-19T05:20:34.685Z,99.90
2023-03-19T05:23:06.713Z,99.90
2023-03-19T05:25:41.646Z,99.90
2023-03-19T05:28:11.746Z,99.90
2023-03-19T05:30:39.022Z,99.90
2023-03-19T05:33:22.752Z,99.90
2023-03-19T05:35:51.806Z,99.90
2023-03-19T05:38:27.335Z,99.90
2023-03-19T05:41:05.225Z,99.90
2023-03-19T05:43:42.653Z,99.90
2023-03-19T05:46:17.994Z,99.90
2023-03-19T05:48:45.260Z,99.90
2023-03-19T05:51:12.786Z,99.90
2023-03-19T05:53:43.265Z,99.90
2023-03-19T05:56:30.539Z,99.90
2023-03-19T05:59:16.809Z,99.90
2023-03-19T06:01:51.630Z,99.90
2023-03-19T06:04:19.126Z,99.90
2023-03-19T06:06:47.301Z,99.90
2023-03-19T06:09:14.881Z,99.90
2023-03-19T06:11:43.912Z,99.90
2023-03-19T06:14:31.244Z,99.90
2023-03-19T06:17:18.486Z,99.90
2023-03-19T06:19:47.719Z,99.90
2023-03-19T06:22:15.178Z,99.90
2023-03-19T06:24:42.498Z,99.90
2023-03-19T06:27:09.865Z,99.90
2023-03-19T06:29:37.492Z,99.90
2023-03-19T06:32:16.719Z,99.90
2023-03-19T06:34:43.891Z,99.90
2023-03-19T06:37:11.970Z,99.90
2023-03-19T06:39:39.568Z,99.90
2023-03-19T06:42:07.583Z,99.90
2023-03-19T06:44:35.308Z,99.90
2023-03-19T06:47:02.415Z,99.90
2023-03-19T06:49:30.059Z,97.90
2023-03-19T06:51:57.282Z,95.70
2023-03-19T06:54:24.411Z,93.50
2023-03-19T06:56:51.622Z,91.50
2023-03-19T06:59:18.734Z,88.80
2023-03-19T07:01:46.971Z,86.40
2023-03-19T07:04:14.179Z,80.50
2023-03-19T07:06:41.379Z,78.10
2023-03-19T07:09:08.843Z,78.50
2023-03-19T07:11:36.484Z,73.80
2023-03-19T07:14:04.320Z,70.80
2023-03-19T07:16:31.543Z,70.60
2023-03-19T07:18:58.868Z,69.30
2023-03-19T07:21:25.945Z,67.10
2023-03-19T07:23:52.997Z,66.80
2023-03-19T07:26:20.190Z,65.50
2023-03-19T07:28:47.291Z,63.20
2023-03-19T07:31:14.650Z,58.40
2023-03-19T07:33:41.784Z,57.10
2023-03-19T07:36:09.278Z,57.70
2023-03-19T07:38:36.469Z,58.80
2023-03-19T07:41:04.283Z,57.80
2023-03-19T07:43:31.733Z,60.00
2023-03-19T07:45:59.505Z,59.80
2023-03-19T07:48:27.459Z,59.60
2023-03-19T07:50:54.572Z,57.10
2023-03-19T07:53:21.706Z,57.70
2023-03-19T07:55:49.176Z,55.60
2023-03-19T07:58:17.157Z,55.30
2023-03-19T08:00:45.236Z,52.20
2023-03-19T08:03:12.585Z,51.50
2023-03-19T08:05:39.937Z,49.80
2023-03-19T08:08:07.476Z,51.40
2023-03-19T08:10:36.607Z,52.20
2023-03-19T08:13:05.461Z,52.70
2023-03-19T08:15:33.174Z,54.00
2023-03-19T08:18:01.614Z,54.90
2023-03-19T08:20:28.962Z,55.30
2023-03-19T08:22:57.720Z,55.10
2023-03-19T08:25:26.161Z,53.20
2023-03-19T08:28:06.103Z,51.00
2023-03-19T08:30:33.437Z,51.80
2023-03-19T08:33:00.993Z,53.60
2023-03-19T08:35:28.693Z,52.40
2023-03-19T08:37:56.220Z,51.00
2023-03-19T08:40:24.124Z,50.60
2023-03-19T08:42:51.215Z,52.30
2023-03-19T08:45:20.601Z,52.10
2023-03-19T08:47:49.984Z,53.50
2023-03-19T08:50:19.852Z,53.70
2023-03-19T08:52:47.319Z,53.80
2023-03-19T08:55:14.459Z,56.70
2023-03-19T08:57:41.753Z,58.90
2023-03-19T09:00:10.150Z,59.10
2023-03-19T09:02:37.556Z,60.60
2023-03-19T09:05:05.024Z,61.20
2023-03-19T09:07:32.194Z,60.90
2023-03-19T09:09:59.264Z,64.20
2023-03-19T09:12:27.835Z,63.60
2023-03-19T09:14:55.112Z,64.40
2023-03-19T09:17:22.355Z,64.40
2023-03-19T09:19:49.386Z,65.90
2023-03-19T09:22:16.709Z,67.10
2023-03-19T09:24:43.897Z,66.80
2023-03-19T09:27:11.060Z,65.60
2023-03-19T09:29:38.300Z,65.50
2023-03-19T09:32:06.184Z,66.60
2023-03-19T09:34:33.367Z,67.50
2023-03-19T09:37:00.463Z,68.30
2023-03-19T09:39:27.716Z,69.20
2023-03-19T09:42:00.918Z,69.20
2023-03-19T09:44:32.979Z,71.10
2023-03-19T09:47:19.964Z,70.70
2023-03-19T09:49:49.322Z,68.20
2023-03-19T09:52:35.595Z,67.60
2023-03-19T09:55:11.670Z,69.10
2023-03-19T09:57:39.716Z,68.60
2023-03-19T10:00:20.661Z,68.20
2023-03-19T10:02:53.635Z,66.80
2023-03-19T10:05:40.632Z,67.80
2023-03-19T10:08:26.399Z,67.80
2023-03-19T10:11:04.769Z,70.10
2023-03-19T10:13:53.761Z,69.20
2023-03-19T10:16:24.326Z,70.40
2023-03-19T10:18:56.070Z,70.80
2023-03-19T10:21:24.273Z,72.00
2023-03-19T10:24:15.075Z,72.20
2023-03-19T10:26:44.048Z,71.60
2023-03-19T10:29:18.952Z,74.70
2023-03-19T10:32:11.011Z,72.80
2023-03-19T10:34:45.940Z,72.90
2023-03-19T10:37:13.067Z,74.60
2023-03-19T10:39:43.197Z,74.40
2023-03-19T10:42:33.594Z,74.00
2023-03-19T10:45:36.083Z,74.60
2023-03-19T10:48:05.464Z,72.30
2023-03-19T10:50:38.960Z,71.40
2023-03-19T10:53:22.401Z,71.30
2023-03-19T10:55:53.342Z,72.20
2023-03-19T10:58:26.260Z,69.50
2023-03-19T11:01:13.339Z,69.30
2023-03-19T11:03:49.896Z,68.70
2023-03-19T11:06:20.335Z,68.60
2023-03-19T11:09:08.335Z,65.70
2023-03-19T11:11:45.454Z,67.20
2023-03-19T11:14:32.370Z,64.40
2023-03-19T11:17:06.678Z,62.40
2023-03-19T11:19:41.766Z,63.80
2023-03-19T11:22:20.892Z,65.20
2023-03-19T11:24:52.304Z,66.40
2023-03-19T11:27:32.443Z,66.20
2023-03-19T11:29:59.666Z,66.30
2023-03-19T11:32:47.648Z,65.10
2023-03-19T11:35:25.303Z,63.60
2023-03-19T11:38:01.926Z,61.70
2023-03-19T11:40:56.485Z,61.40
2023-03-19T11:43:47.084Z,62.20
2023-03-19T11:46:44.230Z,64.10
2023-03-19T11:49:31.821Z,64.80
2023-03-19T11:52:10.967Z,64.00
2023-03-19T11:54:48.898Z,62.60
2023-03-19T11:57:26.641Z,60.60
2023-03-19T11:59:57.153Z,62.00
2023-03-19T12:02:26.353Z,61.90
2023-03-19T12:05:30.043Z,63.50
2023-03-19T12:08:19.255Z,63.10
2023-03-19T12:11:28.589Z,61.70
2023-03-19T12:14:07.378Z,61.60
2023-03-19T12:17:14.532Z,62.10
2023-03-19T12:19:43.949Z,60.00
2023-03-19T12:22:47.097Z,61.70
2023-03-19T12:25:28.916Z,61.40
2023-03-19T12:28:00.055Z,63.80
2023-03-19T12:30:41.632Z,62.30
2023-03-19T12:33:38.434Z,63.50
2023-03-19T12:36:11.143Z,64.10
2023-03-19T12:38:49.170Z,61.00
2023-03-19T12:41:26.172Z,62.40
2023-03-19T12:43:54.307Z,62.00
2023-03-19T12:46:27.643Z,62.10
2023-03-19T12:49:03.672Z,64.60
2023-03-19T12:51:36.767Z,63.60
2023-03-19T12:54:10.622Z,63.10
2023-03-19T12:57:04.171Z,65.10
2023-03-19T12:59:35.509Z,61.60
2023-03-19T13:02:34.477Z,61.30
2023-03-19T13:05:23.081Z,63.90
2023-03-19T13:08:10.730Z,63.40
2023-03-19T13:10:39.674Z,62.30
2023-03-19T13:13:33.287Z,62.40
2023-03-19T13:16:16.113Z,63.00
2023-03-19T13:18:57.407Z,62.60
2023-03-19T13:21:30.295Z,63.20
2023-03-19T13:24:06.330Z,64.50
2023-03-19T13:26:36.688Z,61.90
2023-03-19T13:29:23.588Z,63.50
2023-03-19T13:31:52.067Z,63.40
2023-03-19T13:34:22.216Z,63.90
2023-03-19T13:37:01.107Z,64.10
2023-03-19T13:39:32.896Z,62.20
2023-03-19T13:42:11.949Z,62.50
2023-03-19T13:44:43.136Z,63.50
2023-03-19T13:47:31.762Z,62.20
2023-03-19T13:50:18.807Z,62.50
2023-03-19T13:52:46.043Z,61.70
2023-03-19T13:55:32.954Z,62.50
2023-03-19T13:58:12.720Z,62.50
2023-03-19T14:00:44.687Z,61.90
2023-03-19T14:03:24.534Z,60.40
2023-03-19T14:05:54.915Z,61.60
2023-03-19T14:08:35.267Z,63.80
2023-03-19T14:11:06.821Z,60.20
2023-03-19T14:13:41.722Z,61.50
2023-03-19T14:16:21.243Z,62.50
2023-03-19T14:18:50.633Z,63.10
2023-03-19T14:21:45.686Z,62.60
2023-03-19T14:27:33.353Z,62.40
2023-03-19T14:30:09.478Z,63.60
2023-03-19T14:32:41.156Z,60.80
2023-03-19T14:35:13.193Z,62.00
2023-03-19T14:37:49.427Z,60.80
2023-03-19T14:40:37.620Z,64.50
2023-03-19T14:43:14.533Z,63.70
2023-03-19T14:46:05.046Z,63.80
2023-03-19T14:49:12.564Z,63.80
2023-03-19T14:52:04.371Z,61.90
2023-03-19T14:54:42.216Z,63.80
2023-03-19T14:57:21.027Z,62.70
2023-03-19T14:59:50.747Z,61.90
2023-03-19T15:02:17.723Z,62.50
2023-03-19T15:04:46.996Z,63.60
2023-03-19T15:07:21.683Z,63.00
2023-03-19T15:09:54.522Z,63.80
2023-03-19T15:12:49.770Z,64.70
2023-03-19T15:15:21.370Z,63.20
2023-03-19T15:18:03.488Z,63.40
2023-03-19T15:20:37.556Z,65.40
2023-03-19T15:23:20.039Z,67.40
2023-03-19T15:25:56.954Z,67.90
2023-03-19T15:28:27.086Z,67.90
2023-03-19T15:31:05.719Z,67.60
2023-03-19T15:33:42.650Z,70.70
2023-03-19T15:36:34.048Z,69.30
2023-03-19T15:39:05.147Z,70.10
2023-03-19T15:41:37.179Z,70.40
2023-03-19T15:44:10.569Z,69.40
2023-03-19T15:46:41.359Z,71.60
2023-03-19T15:49:12.971Z,73.50
2023-03-19T15:51:41.076Z,73.90
2023-03-19T15:54:09.157Z,75.90
2023-03-19T15:56:37.744Z,75.70
2023-03-19T15:59:06.544Z,75.10
2023-03-19T16:01:34.575Z,75.70
2023-03-19T16:04:08.156Z,75.30
2023-03-19T16:06:40.080Z,75.00
2023-03-19T16:09:20.125Z,75.30
2023-03-19T16:11:47.810Z,76.00
2023-03-19T16:14:18.122Z,74.90
2023-03-19T16:16:47.302Z,73.90
2023-03-19T16:19:37.006Z,74.80
2023-03-19T16:22:15.425Z,73.30
2023-03-19T16:24:48.261Z,74.10
2023-03-19T16:27:20.513Z,75.30
2023-03-19T16:29:55.970Z,75.80
2023-03-19T16:32:25.635Z,76.20
2023-03-19T16:34:58.371Z,75.50
2023-03-19T16:37:30.100Z,75.70
2023-03-19T16:40:16.228Z,76.20
2023-03-19T16:42:46.043Z,76.60
2023-03-19T16:45:18.547Z,77.30
2023-03-19T16:47:52.849Z,77.20
2023-03-19T16:50:23.718Z,77.10
2023-03-19T16:52:51.411Z,77.00
2023-03-19T16:55:23.074Z,76.50
2023-03-19T16:58:18.559Z,77.40
2023-03-19T17:00:47.586Z,77.70
2023-03-19T17:03:17.626Z,78.50
2023-03-19T17:05:46.744Z,77.90
2023-03-19T17:08:15.599Z,77.60
2023-03-19T17:10:49.853Z,77.90
2023-03-19T17:13:21.549Z,77.70
2023-03-19T17:15:51.388Z,78.50
2023-03-19T17:18:21.117Z,78.60
2023-03-19T17:20:56.593Z,78.70
2023-03-19T17:23:27.301Z,79.00
2023-03-19T17:25:54.902Z,79.40
2023-03-19T17:28:22.960Z,79.00
2023-03-19T17:30:50.866Z,79.50
2023-03-19T17:33:34.178Z,79.30
2023-03-19T17:36:02.086Z,78.60
2023-03-19T17:38:34.021Z,78.70
2023-03-19T17:41:01.758Z,78.50
2023-03-19T17:43:29.158Z,78.90
2023-03-19T17:45:57.152Z,79.10
2023-03-19T17:48:26.523Z,79.00
2023-03-19T17:50:58.739Z,78.90
2023-03-19T17:53:26.800Z,78.40
2023-03-19T17:55:54.014Z,79.30
2023-03-19T17:58:23.046Z,79.20
2023-03-19T18:00:51.476Z,78.70
2023-03-19T18:03:22.090Z,78.30
2023-03-19T18:05:50.778Z,78.40
2023-03-19T18:08:20.920Z,79.20
2023-03-19T18:10:48.249Z,79.00
2023-03-19T18:13:15.687Z,78.90
2023-03-19T18:15:45.244Z,79.10
2023-03-19T18:18:17.791Z,78.50
2023-03-19T18:20:46.784Z,78.40
2023-03-19T18:23:16.349Z,79.10
2023-03-19T18:25:45.128Z,78.60
2023-03-19T18:28:12.510Z,78.90
2023-03-19T18:30:41.548Z,78.60
2023-03-19T18:33:25.265Z,78.80
2023-03-19T18:35:53.746Z,79.30
2023-03-19T18:38:23.420Z,79.10
2023-03-19T18:40:51.539Z,79.40
2023-03-19T18:43:19.085Z,78.60
2023-03-19T18:45:51.262Z,78.80
2023-03-19T18:48:29.101Z,79.90
2023-03-19T18:50:57.514Z,83.30
2023-03-19T18:53:25.197Z,83.30
2023-03-19T18:55:52.634Z,82.70
2023-03-19T18:58:23.415Z,83.40
2023-03-19T19:00:51.815Z,83.40
2023-03-19T19:03:22.736Z,85.00
2023-03-19T19:05:49.900Z,84.50
2023-03-19T19:08:19.735Z,85.00
2023-03-19T19:10:50.210Z,85.80
2023-03-19T19:13:22.760Z,87.60
2023-03-19T19:21:33.412Z,88.60
2023-03-19T19:24:00.691Z,88.80
2023-03-19T19:26:30.736Z,90.20
2023-03-19T19:29:01.174Z,90.20
2023-03-19T19:31:32.491Z,90.10
2023-03-19T19:34:01.018Z,90.60
2023-03-19T19:36:28.867Z,90.60
2023-03-19T19:38:56.197Z,90.50
2023-03-19T19:41:26.564Z,91.20
2023-03-19T19:43:56.047Z,91.00
2023-03-19T19:46:24.695Z,91.60
2023-03-19T19:48:52.401Z,91.50
2023-03-19T19:51:24.105Z,91.40
2023-03-19T19:53:52.519Z,92.20
2023-03-19T19:56:22.393Z,92.40
2023-03-19T19:58:52.559Z,92.50
2023-03-19T20:01:22.762Z,92.60
2023-03-19T20:03:50.695Z,92.80
2023-03-19T20:06:18.389Z,93.40
2023-03-19T20:08:48.341Z,93.50
2023-03-19T20:11:18.949Z,93.90
2023-03-19T20:13:50.036Z,94.30
2023-03-19T20:16:19.020Z,94.40
2023-03-19T20:18:47.745Z,94.60
2023-03-19T20:21:16.259Z,94.60
2023-03-19T20:23:44.477Z,94.90
2023-03-19T20:26:17.593Z,95.40
2023-03-19T20:28:45.558Z,95.50
2023-03-19T20:31:24.904Z,96.00
2023-03-19T20:33:52.364Z,96.40
2023-03-19T20:36:19.689Z,97.30
2023-03-19T20:38:47.179Z,97.80
2023-03-19T20:41:24.438Z,98.70
2023-03-19T20:43:52.163Z,99.20
2023-03-19T20:46:21.099Z,99.60
2023-03-19T20:48:49.083Z,99.90
2023-03-19T20:51:22.847Z,99.90
2023-03-19T20:53:51.661Z,99.90
2023-03-19T20:56:22.237Z,99.90
2023-03-19T20:58:49.516Z,99.90
2023-03-19T21:01:18.024Z,99.90
2023-03-19T21:03:45.557Z,99.90
2023-03-19T21:06:18.157Z,99.90
2023-03-19T21:08:48.355Z,99.90
2023-03-19T21:11:19.049Z,99.90
2023-03-19T21:13:48.177Z,99.90
2023-03-19T21:16:18.574Z,99.90
2023-03-19T21:18:47.115Z,99.90
2023-03-19T21:21:15.471Z,99.90
2023-03-19T21:23:53.774Z,99.90
2023-03-19T21:26:22.804Z,99.90
2023-03-19T21:28:55.216Z,99.90
2023-03-19T21:31:22.933Z,99.90
2023-03-19T21:33:52.370Z,99.90
2023-03-19T21:36:19.568Z,99.90
2023-03-19T21:38:47.748Z,99.90
2023-03-19T21:41:23.944Z,99.90
2023-03-19T21:43:56.278Z,99.90
2023-03-19T21:46:26.531Z,99.90
2023-03-19T21:48:55.613Z,99.90
2023-03-19T21:51:25.372Z,99.90
2023-03-19T21:53:52.569Z,99.90
2023-03-19T21:56:24.299Z,99.90
2023-03-19T21:58:53.358Z,99.90
2023-03-19T22:01:24.245Z,99.90
2023-03-19T22:03:53.396Z,99.90
2023-03-19T22:06:22.212Z,99.90
2023-03-19T22:08:49.730Z,99.90
2023-03-19T22:11:23.243Z,99.90
2023-03-19T22:13:50.536Z,99.90
2023-03-19T22:16:23.178Z,99.90
2023-03-19T22:18:51.849Z,99.90
2023-03-19T22:21:21.388Z,99.90
2023-03-19T22:23:48.967Z,99.90
2023-03-19T22:26:40.802Z,99.90
2023-03-19T22:29:19.583Z,99.90
2023-03-19T22:31:52.827Z,99.90
2023-03-19T22:34:22.844Z,99.90
2023-03-19T22:36:50.558Z,99.90
2023-03-19T22:39:18.111Z,99.90
2023-03-19T22:41:48.214Z,99.90
2023-03-19T22:44:23.197Z,99.90
2023-03-19T22:46:50.713Z,99.90
2023-03-19T22:49:17.892Z,99.90
2023-03-19T22:51:44.983Z,99.90
2023-03-19T22:54:12.503Z,99.90
2023-03-19T22:56:39.696Z,99.90
2023-03-19T22:59:06.931Z,99.90
2023-03-19T23:01:42.072Z,99.90
2023-03-19T23:04:27.727Z,99.90
2023-03-19T23:06:56.575Z,99.90
2023-03-19T23:09:27.626Z,99.90
2023-03-19T23:11:55.141Z,99.90
2023-03-19T23:14:30.080Z,99.90
2023-03-19T23:17:03.311Z,99.90
2023-03-19T23:19:34.540Z,99.90
2023-03-19T23:22:03.291Z,99.90
2023-03-19T23:24:31.075Z,99.90
2023-03-19T23:27:00.297Z,99.90
2023-03-19T23:29:29.850Z,99.90
2023-03-19T23:31:58.730Z,99.90
2023-03-19T23:34:28.674Z,99.90
2023-03-19T23:36:56.914Z,99.90
2023-03-19T23:39:24.640Z,99.90
2023-03-19T23:41:56.790Z,99.90
2023-03-19T23:44:24.315Z,99.90
2023-03-19T23:46:52.368Z,99.90
2023-03-19T23:49:35.282Z,99.90
2023-03-19T23:52:04.564Z,99.90
2023-03-19T23:54:35.190Z,99.90
2023-03-19T23:57:05.764Z,99.90
2023-03-19T23:59:36.970Z,99.90
